Terminal Aerodrome Forecast
Issued by NWS

Home | Current Version | Previous Version | Text Only | Print | Product List | Glossary On
Versions: 1 2 3 4 5 6 7 8 9 10 11 12 13 14 15
935
FTUS45 KABQ 291503 AAB
TAFGUP
TAF AMD
KGUP 291503Z 2915/3012 23013KT P6SM VCSH BKN035 BKN060
     FM291800 26015G25KT P6SM VCSH OVC050
     FM300200 29009KT P6SM BKN080=

USA.gov is the U.S. government's official web portal to all federal, state and local government web resources and services.